Terminal Aerodrome Forecast
Issued by NWS Wilmington, OH

Current Version | Previous Version | Text Only | Print | Product List | Glossary Off
Versions: 1 2 3 4 5 6 7 8 9 10 11 12 13 14 15 16

000
FTUS41 KILN 011700
TAFCMH
TAF
KCMH 011740Z 0118/0218 32006KT P6SM SCT040 BKN100
     FM020000 35004KT P6SM SCT050 BKN250
     FM020800 04004KT P6SM SCT050 BKN250
     FM021300 09005KT P6SM OVC050=

USA.gov is the U.S. government's official web portal to all federal, state and local government web resources and services.